Upper Saint Regis, New York
Current Conditions -  °F | °C
As of 12:33 PM on Sunday 23 Nov 2014 (Local Time) from KSLK Reporting Station
Haze Haze  
Wind Chill: 36°   Ceiling: 500
Heat Index: 41°   Visibility: 4mi
Dew Point: 40°   Wind: 8mph
Humidity: 96%   Direction: 240°WSW
Pressure: 30"   Gusts: NA
Location:  44.3663°N, 74.2493°W
Report Text: KSLK 231733Z AUTO 24007KT 4SM BR OVC005 05/04 A3000 RMK AO2 T00500044
Loading
Personal Weather Stations






























Interactive Weather Map New forecast layout! Learn more

10-Day Weather Forecast

Advertisements
Track Severe Weather on mobile